sensor_id;sensor_type;location;lat;lon;timestamp;temperature;humidity
39825;DHT22;25503;52.532;13.640;2023-05-07T00:01:36;8.80;99.90
39825;DHT22;25503;52.532;13.640;2023-05-07T00:04:02;8.80;99.90
39825;DHT22;25503;52.532;13.640;2023-05-07T00:06:29;8.80;99.90
39825;DHT22;25503;52.532;13.640;2023-05-07T00:08:55;8.80;99.90
39825;DHT22;25503;52.532;13.640;2023-05-07T00:11:21;8.80;99.90
39825;DHT22;25503;52.532;13.640;2023-05-07T00:13:48;8.80;99.90
39825;DHT22;25503;52.532;13.640;2023-05-07T00:16:13;8.80;99.90
39825;DHT22;25503;52.532;13.640;2023-05-07T00:18:39;8.70;99.90
39825;DHT22;25503;52.532;13.640;2023-05-07T00:21:05;8.70;99.90
39825;DHT22;25503;52.532;13.640;2023-05-07T00:23:30;8.70;99.90
39825;DHT22;25503;52.532;13.640;2023-05-07T00:25:56;8.70;99.90
39825;DHT22;25503;52.532;13.640;2023-05-07T00:28:22;8.70;99.90
39825;DHT22;25503;52.532;13.640;2023-05-07T00:30:47;8.70;99.90
39825;DHT22;25503;52.532;13.640;2023-05-07T00:33:13;8.70;99.90
39825;DHT22;25503;52.532;13.640;2023-05-07T00:35:38;8.70;99.90
39825;DHT22;25503;52.532;13.640;2023-05-07T00:38:04;8.70;99.90
39825;DHT22;25503;52.532;13.640;2023-05-07T00:40:30;8.70;99.90
39825;DHT22;25503;52.532;13.640;2023-05-07T00:42:55;8.70;99.90
39825;DHT22;25503;52.532;13.640;2023-05-07T00:45:26;8.70;99.90
39825;DHT22;25503;52.532;13.640;2023-05-07T00:47:54;8.70;99.90
39825;DHT22;25503;52.532;13.640;2023-05-07T00:50:20;8.70;99.90
39825;DHT22;25503;52.532;13.640;2023-05-07T00:52:46;8.70;99.90
39825;DHT22;25503;52.532;13.640;2023-05-07T00:55:12;8.70;99.90
39825;DHT22;25503;52.532;13.640;2023-05-07T00:57:40;8.70;99.90
39825;DHT22;25503;52.532;13.640;2023-05-07T01:00:07;8.70;99.90
39825;DHT22;25503;52.532;13.640;2023-05-07T01:02:38;8.70;99.90
39825;DHT22;25503;52.532;13.640;2023-05-07T01:05:05;8.70;99.90
39825;DHT22;25503;52.532;13.640;2023-05-07T01:07:32;8.70;99.90
39825;DHT22;25503;52.532;13.640;2023-05-07T01:09:58;8.70;99.90
39825;DHT22;25503;52.532;13.640;2023-05-07T01:12:24;8.70;99.90
39825;DHT22;25503;52.532;13.640;2023-05-07T01:14:50;8.70;99.90
39825;DHT22;25503;52.532;13.640;2023-05-07T01:17:16;8.70;99.90
39825;DHT22;25503;52.532;13.640;2023-05-07T01:19:42;8.70;99.90
39825;DHT22;25503;52.532;13.640;2023-05-07T01:22:10;8.70;99.90
39825;DHT22;25503;52.532;13.640;2023-05-07T01:24:40;8.70;99.90
39825;DHT22;25503;52.532;13.640;2023-05-07T01:27:06;8.70;99.90
39825;DHT22;25503;52.532;13.640;2023-05-07T01:29:32;8.70;99.90
39825;DHT22;25503;52.532;13.640;2023-05-07T01:31:59;8.70;99.90
39825;DHT22;25503;52.532;13.640;2023-05-07T01:34:26;8.70;99.90
39825;DHT22;25503;52.532;13.640;2023-05-07T01:36:54;8.70;99.90
39825;DHT22;25503;52.532;13.640;2023-05-07T01:39:22;8.70;99.90
39825;DHT22;25503;52.532;13.640;2023-05-07T01:41:49;8.70;99.90
39825;DHT22;25503;52.532;13.640;2023-05-07T01:44:15;8.70;99.90
39825;DHT22;25503;52.532;13.640;2023-05-07T01:46:42;8.70;99.90
39825;DHT22;25503;52.532;13.640;2023-05-07T01:49:07;8.70;99.90
39825;DHT22;25503;52.532;13.640;2023-05-07T01:51:34;8.70;99.90
39825;DHT22;25503;52.532;13.640;2023-05-07T01:53:59;8.70;99.90
39825;DHT22;25503;52.532;13.640;2023-05-07T01:56:25;8.70;99.90
39825;DHT22;25503;52.532;13.640;2023-05-07T01:58:51;8.70;99.90
39825;DHT22;25503;52.532;13.640;2023-05-07T02:01:17;8.70;99.90
39825;DHT22;25503;52.532;13.640;2023-05-07T02:03:43;8.70;99.90
39825;DHT22;25503;52.532;13.640;2023-05-07T02:06:09;8.70;99.90
39825;DHT22;25503;52.532;13.640;2023-05-07T02:08:35;8.70;99.90
39825;DHT22;25503;52.532;13.640;2023-05-07T02:11:00;8.70;99.90
39825;DHT22;25503;52.532;13.640;2023-05-07T02:13:31;8.70;99.90
39825;DHT22;25503;52.532;13.640;2023-05-07T02:15:57;8.70;99.90
39825;DHT22;25503;52.532;13.640;2023-05-07T02:18:23;8.70;99.90
39825;DHT22;25503;52.532;13.640;2023-05-07T02:20:48;8.70;99.90
39825;DHT22;25503;52.532;13.640;2023-05-07T02:23:14;8.70;99.90
39825;DHT22;25503;52.532;13.640;2023-05-07T02:25:40;8.70;99.90
39825;DHT22;25503;52.532;13.640;2023-05-07T02:28:05;8.70;99.90
39825;DHT22;25503;52.532;13.640;2023-05-07T02:30:31;8.60;99.90
39825;DHT22;25503;52.532;13.640;2023-05-07T02:32:58;8.70;99.90
39825;DHT22;25503;52.532;13.640;2023-05-07T02:35:24;8.70;99.90
39825;DHT22;25503;52.532;13.640;2023-05-07T02:37:50;8.60;99.90
39825;DHT22;25503;52.532;13.640;2023-05-07T02:40:16;8.60;99.90
39825;DHT22;25503;52.532;13.640;2023-05-07T02:42:41;8.60;99.90
39825;DHT22;25503;52.532;13.640;2023-05-07T02:45:08;8.60;99.90
39825;DHT22;25503;52.532;13.640;2023-05-07T02:47:33;8.60;99.90
39825;DHT22;25503;52.532;13.640;2023-05-07T02:49:59;8.60;99.90
39825;DHT22;25503;52.532;13.640;2023-05-07T02:52:25;8.60;99.90
39825;DHT22;25503;52.532;13.640;2023-05-07T02:54:50;8.60;99.90
39825;DHT22;25503;52.532;13.640;2023-05-07T02:57:16;8.60;99.90
39825;DHT22;25503;52.532;13.640;2023-05-07T02:59:42;8.60;99.90
39825;DHT22;25503;52.532;13.640;2023-05-07T03:02:08;8.60;99.90
39825;DHT22;25503;52.532;13.640;2023-05-07T03:04:34;8.60;99.90
39825;DHT22;25503;52.532;13.640;2023-05-07T03:06:59;8.60;99.90
39825;DHT22;25503;52.532;13.640;2023-05-07T03:09:25;8.60;99.90
39825;DHT22;25503;52.532;13.640;2023-05-07T03:11:51;8.60;99.90
39825;DHT22;25503;52.532;13.640;2023-05-07T03:14:17;8.50;99.90
39825;DHT22;25503;52.532;13.640;2023-05-07T03:16:42;8.50;99.90
39825;DHT22;25503;52.532;13.640;2023-05-07T03:19:08;8.50;99.90
39825;DHT22;25503;52.532;13.640;2023-05-07T03:21:33;8.50;99.90
39825;DHT22;25503;52.532;13.640;2023-05-07T03:23:59;8.50;99.90
39825;DHT22;25503;52.532;13.640;2023-05-07T03:26:25;8.50;99.90
39825;DHT22;25503;52.532;13.640;2023-05-07T03:28:51;8.50;99.90
39825;DHT22;25503;52.532;13.640;2023-05-07T03:31:17;8.50;99.90
39825;DHT22;25503;52.532;13.640;2023-05-07T03:33:54;8.50;99.90
39825;DHT22;25503;52.532;13.640;2023-05-07T03:36:20;8.50;99.90
39825;DHT22;25503;52.532;13.640;2023-05-07T03:38:46;8.50;99.90
39825;DHT22;25503;52.532;13.640;2023-05-07T03:41:12;8.50;99.90
39825;DHT22;25503;52.532;13.640;2023-05-07T03:43:38;8.50;99.90
39825;DHT22;25503;52.532;13.640;2023-05-07T03:46:03;8.50;99.90
39825;DHT22;25503;52.532;13.640;2023-05-07T03:48:29;8.50;99.90
39825;DHT22;25503;52.532;13.640;2023-05-07T03:50:56;8.50;99.90
39825;DHT22;25503;52.532;13.640;2023-05-07T03:53:22;8.50;99.90
39825;DHT22;25503;52.532;13.640;2023-05-07T03:55:48;8.50;99.90
39825;DHT22;25503;52.532;13.640;2023-05-07T03:58:13;8.40;99.90
39825;DHT22;25503;52.532;13.640;2023-05-07T04:00:39;8.40;99.90
39825;DHT22;25503;52.532;13.640;2023-05-07T04:03:06;8.50;99.90
39825;DHT22;25503;52.532;13.640;2023-05-07T04:05:31;8.40;99.90
39825;DHT22;25503;52.532;13.640;2023-05-07T04:08:00;8.40;99.90
39825;DHT22;25503;52.532;13.640;2023-05-07T04:10:26;8.40;99.90
39825;DHT22;25503;52.532;13.640;2023-05-07T04:12:53;8.40;99.90
39825;DHT22;25503;52.532;13.640;2023-05-07T04:15:19;8.40;99.90
39825;DHT22;25503;52.532;13.640;2023-05-07T04:17:45;8.50;99.90
39825;DHT22;25503;52.532;13.640;2023-05-07T04:20:13;8.40;99.90
39825;DHT22;25503;52.532;13.640;2023-05-07T04:22:39;8.40;99.90
39825;DHT22;25503;52.532;13.640;2023-05-07T04:25:05;8.50;99.90
39825;DHT22;25503;52.532;13.640;2023-05-07T04:27:31;8.50;99.90
39825;DHT22;25503;52.532;13.640;2023-05-07T04:29:57;8.50;99.90
39825;DHT22;25503;52.532;13.640;2023-05-07T04:32:23;8.50;99.90
39825;DHT22;25503;52.532;13.640;2023-05-07T04:34:50;8.50;99.90
39825;DHT22;25503;52.532;13.640;2023-05-07T04:37:17;8.50;99.90
39825;DHT22;25503;52.532;13.640;2023-05-07T04:39:42;8.50;99.90
39825;DHT22;25503;52.532;13.640;2023-05-07T04:42:08;8.50;99.90
39825;DHT22;25503;52.532;13.640;2023-05-07T04:44:34;8.50;99.90
39825;DHT22;25503;52.532;13.640;2023-05-07T04:47:02;8.50;99.90
39825;DHT22;25503;52.532;13.640;2023-05-07T04:49:27;8.60;99.90
39825;DHT22;25503;52.532;13.640;2023-05-07T04:51:53;8.60;99.90
39825;DHT22;25503;52.532;13.640;2023-05-07T04:54:19;8.60;99.90
39825;DHT22;25503;52.532;13.640;2023-05-07T04:56:44;8.60;99.90
39825;DHT22;25503;52.532;13.640;2023-05-07T04:59:10;8.60;99.90
39825;DHT22;25503;52.532;13.640;2023-05-07T05:01:35;8.60;99.90
39825;DHT22;25503;52.532;13.640;2023-05-07T05:04:01;8.70;99.90
39825;DHT22;25503;52.532;13.640;2023-05-07T05:06:26;8.60;99.90
39825;DHT22;25503;52.532;13.640;2023-05-07T05:08:52;8.60;99.90
39825;DHT22;25503;52.532;13.640;2023-05-07T05:11:21;8.60;99.90
39825;DHT22;25503;52.532;13.640;2023-05-07T05:13:46;8.60;99.90
39825;DHT22;25503;52.532;13.640;2023-05-07T05:16:14;8.70;99.90
39825;DHT22;25503;52.532;13.640;2023-05-07T05:18:40;8.70;99.90
39825;DHT22;25503;52.532;13.640;2023-05-07T05:21:06;8.70;99.90
39825;DHT22;25503;52.532;13.640;2023-05-07T05:23:31;8.70;99.90
39825;DHT22;25503;52.532;13.640;2023-05-07T05:25:58;8.80;99.90
39825;DHT22;25503;52.532;13.640;2023-05-07T05:28:23;8.80;99.90
39825;DHT22;25503;52.532;13.640;2023-05-07T05:30:49;8.80;99.90
39825;DHT22;25503;52.532;13.640;2023-05-07T05:33:15;8.80;99.90
39825;DHT22;25503;52.532;13.640;2023-05-07T05:35:41;8.80;99.90
39825;DHT22;25503;52.532;13.640;2023-05-07T05:38:07;8.90;99.90
39825;DHT22;25503;52.532;13.640;2023-05-07T05:40:32;8.90;99.90
39825;DHT22;25503;52.532;13.640;2023-05-07T05:42:59;8.90;99.90
39825;DHT22;25503;52.532;13.640;2023-05-07T05:45:24;9.00;99.90
39825;DHT22;25503;52.532;13.640;2023-05-07T05:47:50;9.10;99.90
39825;DHT22;25503;52.532;13.640;2023-05-07T05:50:16;9.10;99.90
39825;DHT22;25503;52.532;13.640;2023-05-07T05:52:41;9.20;99.90
39825;DHT22;25503;52.532;13.640;2023-05-07T05:55:07;9.20;99.90
39825;DHT22;25503;52.532;13.640;2023-05-07T05:57:33;9.20;99.90
39825;DHT22;25503;52.532;13.640;2023-05-07T06:00:00;9.30;99.90
39825;DHT22;25503;52.532;13.640;2023-05-07T06:02:26;9.30;99.90
39825;DHT22;25503;52.532;13.640;2023-05-07T06:04:51;9.40;99.90
39825;DHT22;25503;52.532;13.640;2023-05-07T06:07:17;9.40;99.90
39825;DHT22;25503;52.532;13.640;2023-05-07T06:09:42;9.40;99.90
39825;DHT22;25503;52.532;13.640;2023-05-07T06:12:08;9.50;99.90
39825;DHT22;25503;52.532;13.640;2023-05-07T06:14:34;9.50;99.90
39825;DHT22;25503;52.532;13.640;2023-05-07T06:16:59;9.50;99.90
39825;DHT22;25503;52.532;13.640;2023-05-07T06:19:25;9.60;99.90
39825;DHT22;25503;52.532;13.640;2023-05-07T06:21:51;9.60;99.90
39825;DHT22;25503;52.532;13.640;2023-05-07T06:24:17;9.60;99.90
39825;DHT22;25503;52.532;13.640;2023-05-07T06:26:43;9.60;99.90
39825;DHT22;25503;52.532;13.640;2023-05-07T06:29:08;9.70;99.90
39825;DHT22;25503;52.532;13.640;2023-05-07T06:31:34;9.80;99.90
39825;DHT22;25503;52.532;13.640;2023-05-07T06:33:59;9.80;99.90
39825;DHT22;25503;52.532;13.640;2023-05-07T06:36:28;9.80;99.90
39825;DHT22;25503;52.532;13.640;2023-05-07T06:38:54;9.90;99.90
39825;DHT22;25503;52.532;13.640;2023-05-07T06:41:20;9.90;99.90
39825;DHT22;25503;52.532;13.640;2023-05-07T06:43:45;10.00;99.90
39825;DHT22;25503;52.532;13.640;2023-05-07T06:46:11;10.10;99.90
39825;DHT22;25503;52.532;13.640;2023-05-07T06:48:37;10.20;99.90
39825;DHT22;25503;52.532;13.640;2023-05-07T06:51:02;10.20;99.90
39825;DHT22;25503;52.532;13.640;2023-05-07T06:53:28;10.30;99.90
39825;DHT22;25503;52.532;13.640;2023-05-07T06:55:56;10.30;99.90
39825;DHT22;25503;52.532;13.640;2023-05-07T06:58:21;10.30;99.90
39825;DHT22;25503;52.532;13.640;2023-05-07T07:00:47;10.30;99.90
39825;DHT22;25503;52.532;13.640;2023-05-07T07:03:13;10.40;99.90
39825;DHT22;25503;52.532;13.640;2023-05-07T07:05:39;10.40;99.90
39825;DHT22;25503;52.532;13.640;2023-05-07T07:08:05;10.50;99.90
39825;DHT22;25503;52.532;13.640;2023-05-07T07:10:31;10.50;99.90
39825;DHT22;25503;52.532;13.640;2023-05-07T07:12:56;10.50;99.90
39825;DHT22;25503;52.532;13.640;2023-05-07T07:15:22;10.60;99.90
39825;DHT22;25503;52.532;13.640;2023-05-07T07:17:50;10.70;99.90
39825;DHT22;25503;52.532;13.640;2023-05-07T07:20:16;10.70;99.90
39825;DHT22;25503;52.532;13.640;2023-05-07T07:22:42;10.70;99.90
39825;DHT22;25503;52.532;13.640;2023-05-07T07:25:07;10.70;99.90
39825;DHT22;25503;52.532;13.640;2023-05-07T07:27:33;10.70;99.90
39825;DHT22;25503;52.532;13.640;2023-05-07T07:29:59;10.80;99.90
39825;DHT22;25503;52.532;13.640;2023-05-07T07:32:26;10.90;99.90
39825;DHT22;25503;52.532;13.640;2023-05-07T07:34:51;11.10;99.90
39825;DHT22;25503;52.532;13.640;2023-05-07T07:37:17;11.20;99.90
39825;DHT22;25503;52.532;13.640;2023-05-07T07:39:42;11.30;99.90
39825;DHT22;25503;52.532;13.640;2023-05-07T07:42:08;11.40;99.90
39825;DHT22;25503;52.532;13.640;2023-05-07T07:44:34;11.50;99.90
39825;DHT22;25503;52.532;13.640;2023-05-07T07:46:59;11.60;99.90
39825;DHT22;25503;52.532;13.640;2023-05-07T07:49:26;11.70;99.90
39825;DHT22;25503;52.532;13.640;2023-05-07T07:51:52;11.80;99.90
39825;DHT22;25503;52.532;13.640;2023-05-07T07:54:18;11.90;99.90
39825;DHT22;25503;52.532;13.640;2023-05-07T07:56:43;12.00;99.90
39825;DHT22;25503;52.532;13.640;2023-05-07T07:59:09;12.20;99.90
39825;DHT22;25503;52.532;13.640;2023-05-07T08:01:34;12.30;99.90
39825;DHT22;25503;52.532;13.640;2023-05-07T08:04:01;12.40;99.90
39825;DHT22;25503;52.532;13.640;2023-05-07T08:06:28;12.40;99.90
39825;DHT22;25503;52.532;13.640;2023-05-07T08:08:54;12.40;99.90
39825;DHT22;25503;52.532;13.640;2023-05-07T08:11:20;12.50;99.90
39825;DHT22;25503;52.532;13.640;2023-05-07T08:13:46;12.50;99.90
39825;DHT22;25503;52.532;13.640;2023-05-07T08:16:12;12.70;99.90
39825;DHT22;25503;52.532;13.640;2023-05-07T08:18:38;12.80;99.90
39825;DHT22;25503;52.532;13.640;2023-05-07T08:21:04;12.90;99.90
39825;DHT22;25503;52.532;13.640;2023-05-07T08:23:29;13.10;99.90
39825;DHT22;25503;52.532;13.640;2023-05-07T08:25:55;13.20;99.90
39825;DHT22;25503;52.532;13.640;2023-05-07T08:28:21;13.50;99.90
39825;DHT22;25503;52.532;13.640;2023-05-07T08:30:47;13.60;99.90
39825;DHT22;25503;52.532;13.640;2023-05-07T08:33:12;13.60;99.90
39825;DHT22;25503;52.532;13.640;2023-05-07T08:35:38;13.70;99.90
39825;DHT22;25503;52.532;13.640;2023-05-07T08:38:04;13.60;99.90
39825;DHT22;25503;52.532;13.640;2023-05-07T08:40:34;13.60;99.90
39825;DHT22;25503;52.532;13.640;2023-05-07T08:43:02;13.60;99.90
39825;DHT22;25503;52.532;13.640;2023-05-07T08:45:30;13.60;99.90
39825;DHT22;25503;52.532;13.640;2023-05-07T08:48:08;13.70;99.90
39825;DHT22;25503;52.532;13.640;2023-05-07T08:50:38;13.70;99.90
39825;DHT22;25503;52.532;13.640;2023-05-07T08:53:04;13.70;99.90
39825;DHT22;25503;52.532;13.640;2023-05-07T08:55:30;13.80;99.90
39825;DHT22;25503;52.532;13.640;2023-05-07T08:57:56;13.70;99.90
39825;DHT22;25503;52.532;13.640;2023-05-07T09:00:22;13.70;99.90
39825;DHT22;25503;52.532;13.640;2023-05-07T09:02:48;13.70;99.90
39825;DHT22;25503;52.532;13.640;2023-05-07T09:05:13;13.70;99.90
39825;DHT22;25503;52.532;13.640;2023-05-07T09:07:39;13.70;99.90
39825;DHT22;25503;52.532;13.640;2023-05-07T09:10:05;13.70;99.90
39825;DHT22;25503;52.532;13.640;2023-05-07T09:12:31;13.60;99.90
39825;DHT22;25503;52.532;13.640;2023-05-07T09:14:58;13.60;99.90
39825;DHT22;25503;52.532;13.640;2023-05-07T09:17:24;13.60;99.90
39825;DHT22;25503;52.532;13.640;2023-05-07T09:19:50;13.50;99.90
39825;DHT22;25503;52.532;13.640;2023-05-07T09:22:16;13.50;99.90
39825;DHT22;25503;52.532;13.640;2023-05-07T09:24:50;13.50;99.90
39825;DHT22;25503;52.532;13.640;2023-05-07T09:27:16;13.40;99.90
39825;DHT22;25503;52.532;13.640;2023-05-07T09:29:43;13.40;99.90
39825;DHT22;25503;52.532;13.640;2023-05-07T09:32:09;13.40;99.90
39825;DHT22;25503;52.532;13.640;2023-05-07T09:34:35;13.40;99.90
39825;DHT22;25503;52.532;13.640;2023-05-07T09:37:02;13.40;99.90
39825;DHT22;25503;52.532;13.640;2023-05-07T09:39:46;13.50;99.90
39825;DHT22;25503;52.532;13.640;2023-05-07T09:42:12;13.50;99.90
39825;DHT22;25503;52.532;13.640;2023-05-07T09:44:38;13.60;99.90
39825;DHT22;25503;52.532;13.640;2023-05-07T09:47:05;13.80;99.90
39825;DHT22;25503;52.532;13.640;2023-05-07T09:49:34;14.00;99.90
39825;DHT22;25503;52.532;13.640;2023-05-07T09:52:01;14.00;99.90
39825;DHT22;25503;52.532;13.640;2023-05-07T09:54:27;14.10;99.90
39825;DHT22;25503;52.532;13.640;2023-05-07T09:56:56;14.20;99.90
39825;DHT22;25503;52.532;13.640;2023-05-07T09:59:22;14.50;99.90
39825;DHT22;25503;52.532;13.640;2023-05-07T10:01:49;14.60;99.90
39825;DHT22;25503;52.532;13.640;2023-05-07T10:04:16;14.90;99.90
39825;DHT22;25503;52.532;13.640;2023-05-07T10:06:42;15.20;99.90
39825;DHT22;25503;52.532;13.640;2023-05-07T10:09:09;15.30;99.90
39825;DHT22;25503;52.532;13.640;2023-05-07T10:11:36;15.40;99.90
39825;DHT22;25503;52.532;13.640;2023-05-07T10:14:03;15.40;99.90
39825;DHT22;25503;52.532;13.640;2023-05-07T10:16:32;15.50;99.90
39825;DHT22;25503;52.532;13.640;2023-05-07T10:19:02;15.60;99.90
39825;DHT22;25503;52.532;13.640;2023-05-07T10:21:30;15.70;99.90
39825;DHT22;25503;52.532;13.640;2023-05-07T10:24:04;15.80;99.90
39825;DHT22;25503;52.532;13.640;2023-05-07T10:26:35;16.00;99.90
39825;DHT22;25503;52.532;13.640;2023-05-07T10:34:37;15.80;99.90
39825;DHT22;25503;52.532;13.640;2023-05-07T10:37:04;15.70;99.90
39825;DHT22;25503;52.532;13.640;2023-05-07T10:39:30;15.60;99.90
39825;DHT22;25503;52.532;13.640;2023-05-07T10:41:56;15.70;99.90
39825;DHT22;25503;52.532;13.640;2023-05-07T10:44:26;15.90;99.90
39825;DHT22;25503;52.532;13.640;2023-05-07T10:47:09;16.10;99.90
39825;DHT22;25503;52.532;13.640;2023-05-07T10:49:36;16.20;99.90
39825;DHT22;25503;52.532;13.640;2023-05-07T10:52:18;16.30;99.90
39825;DHT22;25503;52.532;13.640;2023-05-07T10:54:45;16.50;99.90
39825;DHT22;25503;52.532;13.640;2023-05-07T10:59:58;17.00;99.90
39825;DHT22;25503;52.532;13.640;2023-05-07T11:03:04;17.30;99.90
39825;DHT22;25503;52.532;13.640;2023-05-07T11:05:32;17.30;99.90
39825;DHT22;25503;52.532;13.640;2023-05-07T11:07:59;17.10;99.90
39825;DHT22;25503;52.532;13.640;2023-05-07T11:10:47;17.20;99.90
39825;DHT22;25503;52.532;13.640;2023-05-07T11:13:14;17.40;99.90
39825;DHT22;25503;52.532;13.640;2023-05-07T11:15:42;17.60;99.90
39825;DHT22;25503;52.532;13.640;2023-05-07T11:18:09;17.60;99.90
39825;DHT22;25503;52.532;13.640;2023-05-07T11:28:28;17.50;99.90
39825;DHT22;25503;52.532;13.640;2023-05-07T11:30:54;17.50;99.90
39825;DHT22;25503;52.532;13.640;2023-05-07T11:33:20;17.40;99.90
39825;DHT22;25503;52.532;13.640;2023-05-07T11:35:46;17.40;99.90
39825;DHT22;25503;52.532;13.640;2023-05-07T11:38:13;17.30;99.90
39825;DHT22;25503;52.532;13.640;2023-05-07T11:40:56;17.20;99.90
39825;DHT22;25503;52.532;13.640;2023-05-07T11:43:22;17.10;99.90
39825;DHT22;25503;52.532;13.640;2023-05-07T11:45:48;16.90;99.90
39825;DHT22;25503;52.532;13.640;2023-05-07T11:48:14;17.00;99.90
39825;DHT22;25503;52.532;13.640;2023-05-07T11:50:59;17.30;99.90
39825;DHT22;25503;52.532;13.640;2023-05-07T11:53:25;17.30;99.90
39825;DHT22;25503;52.532;13.640;2023-05-07T11:55:57;17.40;99.90
39825;DHT22;25503;52.532;13.640;2023-05-07T11:58:24;17.60;99.90
39825;DHT22;25503;52.532;13.640;2023-05-07T12:00:54;17.60;99.90
39825;DHT22;25503;52.532;13.640;2023-05-07T12:03:22;17.70;99.90
39825;DHT22;25503;52.532;13.640;2023-05-07T12:05:49;17.90;99.90
39825;DHT22;25503;52.532;13.640;2023-05-07T12:08:18;18.10;99.90
39825;DHT22;25503;52.532;13.640;2023-05-07T12:10:46;18.20;99.90
39825;DHT22;25503;52.532;13.640;2023-05-07T12:15:42;18.20;99.90
39825;DHT22;25503;52.532;13.640;2023-05-07T12:18:08;18.20;99.90
39825;DHT22;25503;52.532;13.640;2023-05-07T12:20:35;18.30;99.90
39825;DHT22;25503;52.532;13.640;2023-05-07T12:23:02;18.30;99.90
39825;DHT22;25503;52.532;13.640;2023-05-07T12:25:30;18.50;99.90
39825;DHT22;25503;52.532;13.640;2023-05-07T12:27:56;18.50;99.90
39825;DHT22;25503;52.532;13.640;2023-05-07T12:30:24;18.40;99.90
39825;DHT22;25503;52.532;13.640;2023-05-07T12:32:53;18.50;99.90
39825;DHT22;25503;52.532;13.640;2023-05-07T12:35:29;18.60;99.90
39825;DHT22;25503;52.532;13.640;2023-05-07T12:37:59;18.60;99.90
39825;DHT22;25503;52.532;13.640;2023-05-07T12:40:38;18.40;99.90
39825;DHT22;25503;52.532;13.640;2023-05-07T12:43:04;18.30;99.90
39825;DHT22;25503;52.532;13.640;2023-05-07T12:45:30;18.40;99.90
39825;DHT22;25503;52.532;13.640;2023-05-07T12:47:56;18.50;99.90
39825;DHT22;25503;52.532;13.640;2023-05-07T12:50:22;18.80;99.90
39825;DHT22;25503;52.532;13.640;2023-05-07T12:52:48;18.80;99.90
39825;DHT22;25503;52.532;13.640;2023-05-07T12:55:14;18.80;99.90
39825;DHT22;25503;52.532;13.640;2023-05-07T12:57:48;18.80;99.90
39825;DHT22;25503;52.532;13.640;2023-05-07T13:00:14;18.80;99.90
39825;DHT22;25503;52.532;13.640;2023-05-07T13:02:42;18.70;99.90
39825;DHT22;25503;52.532;13.640;2023-05-07T13:05:10;18.70;99.90
39825;DHT22;25503;52.532;13.640;2023-05-07T13:07:36;18.70;99.90
39825;DHT22;25503;52.532;13.640;2023-05-07T13:10:02;18.80;99.90
39825;DHT22;25503;52.532;13.640;2023-05-07T13:12:28;19.00;99.90
39825;DHT22;25503;52.532;13.640;2023-05-07T13:14:54;19.10;99.90
39825;DHT22;25503;52.532;13.640;2023-05-07T13:17:19;19.20;99.90
39825;DHT22;25503;52.532;13.640;2023-05-07T13:19:45;19.20;99.90
39825;DHT22;25503;52.532;13.640;2023-05-07T13:22:10;19.00;99.90
39825;DHT22;25503;52.532;13.640;2023-05-07T13:24:36;19.00;99.90
39825;DHT22;25503;52.532;13.640;2023-05-07T13:27:02;18.90;99.90
39825;DHT22;25503;52.532;13.640;2023-05-07T13:29:28;18.60;99.90
39825;DHT22;25503;52.532;13.640;2023-05-07T13:31:59;18.50;99.90
39825;DHT22;25503;52.532;13.640;2023-05-07T13:34:25;18.40;99.90
39825;DHT22;25503;52.532;13.640;2023-05-07T13:36:50;18.60;99.90
39825;DHT22;25503;52.532;13.640;2023-05-07T13:39:16;18.60;99.90
39825;DHT22;25503;52.532;13.640;2023-05-07T13:41:41;18.60;99.90
39825;DHT22;25503;52.532;13.640;2023-05-07T13:44:07;18.70;99.90
39825;DHT22;25503;52.532;13.640;2023-05-07T13:46:33;18.70;99.90
39825;DHT22;25503;52.532;13.640;2023-05-07T13:48:58;18.60;99.90
39825;DHT22;25503;52.532;13.640;2023-05-07T13:51:24;18.40;99.90
39825;DHT22;25503;52.532;13.640;2023-05-07T13:53:49;18.20;99.90
39825;DHT22;25503;52.532;13.640;2023-05-07T13:56:15;18.20;99.90
39825;DHT22;25503;52.532;13.640;2023-05-07T13:58:41;18.20;99.90
39825;DHT22;25503;52.532;13.640;2023-05-07T14:01:07;18.30;99.90
39825;DHT22;25503;52.532;13.640;2023-05-07T14:03:32;18.50;99.90
39825;DHT22;25503;52.532;13.640;2023-05-07T14:05:59;18.40;99.90
39825;DHT22;25503;52.532;13.640;2023-05-07T14:08:27;18.30;99.90
39825;DHT22;25503;52.532;13.640;2023-05-07T14:10:53;18.10;99.90
39825;DHT22;25503;52.532;13.640;2023-05-07T14:13:18;18.00;99.90
39825;DHT22;25503;52.532;13.640;2023-05-07T14:15:44;17.80;99.90
39825;DHT22;25503;52.532;13.640;2023-05-07T14:18:14;17.70;99.90
39825;DHT22;25503;52.532;13.640;2023-05-07T14:20:40;17.60;99.90
39825;DHT22;25503;52.532;13.640;2023-05-07T14:23:06;17.60;99.90
39825;DHT22;25503;52.532;13.640;2023-05-07T14:25:31;17.60;99.90
39825;DHT22;25503;52.532;13.640;2023-05-07T14:27:57;17.60;99.90
39825;DHT22;25503;52.532;13.640;2023-05-07T14:30:23;17.50;99.90
39825;DHT22;25503;52.532;13.640;2023-05-07T14:32:50;17.40;99.90
39825;DHT22;25503;52.532;13.640;2023-05-07T14:35:16;17.30;99.90
39825;DHT22;25503;52.532;13.640;2023-05-07T14:37:43;17.30;99.90
39825;DHT22;25503;52.532;13.640;2023-05-07T14:40:09;17.30;99.90
39825;DHT22;25503;52.532;13.640;2023-05-07T14:42:35;17.20;99.90
39825;DHT22;25503;52.532;13.640;2023-05-07T14:45:01;17.30;99.90
39825;DHT22;25503;52.532;13.640;2023-05-07T14:47:26;17.40;99.90
39825;DHT22;25503;52.532;13.640;2023-05-07T14:49:52;17.50;99.90
39825;DHT22;25503;52.532;13.640;2023-05-07T14:52:18;17.50;99.90
39825;DHT22;25503;52.532;13.640;2023-05-07T14:54:44;17.70;99.90
39825;DHT22;25503;52.532;13.640;2023-05-07T14:57:10;17.70;99.90
39825;DHT22;25503;52.532;13.640;2023-05-07T14:59:38;17.80;99.90
39825;DHT22;25503;52.532;13.640;2023-05-07T15:02:05;17.70;99.90
39825;DHT22;25503;52.532;13.640;2023-05-07T15:04:33;17.80;99.90
39825;DHT22;25503;52.532;13.640;2023-05-07T15:06:59;17.80;99.90
39825;DHT22;25503;52.532;13.640;2023-05-07T15:09:25;17.70;99.90
39825;DHT22;25503;52.532;13.640;2023-05-07T15:11:51;17.60;99.90
39825;DHT22;25503;52.532;13.640;2023-05-07T15:14:17;17.60;99.90
39825;DHT22;25503;52.532;13.640;2023-05-07T15:16:42;17.50;99.90
39825;DHT22;25503;52.532;13.640;2023-05-07T15:19:08;17.50;99.90
39825;DHT22;25503;52.532;13.640;2023-05-07T15:21:33;17.50;99.90
39825;DHT22;25503;52.532;13.640;2023-05-07T15:24:01;17.60;99.90
39825;DHT22;25503;52.532;13.640;2023-05-07T15:26:27;17.70;99.90
39825;DHT22;25503;52.532;13.640;2023-05-07T15:28:53;17.60;99.90
39825;DHT22;25503;52.532;13.640;2023-05-07T15:31:21;17.50;99.90
39825;DHT22;25503;52.532;13.640;2023-05-07T15:33:46;17.30;99.90
39825;DHT22;25503;52.532;13.640;2023-05-07T15:36:13;17.20;99.90
39825;DHT22;25503;52.532;13.640;2023-05-07T15:38:38;17.00;99.90